sensor_id;sensor_type;location;lat;lon;timestamp;P1;durP1;ratioP1;P2;durP2;ratioP2
57341;SDS011;43175;51.002;18.316;2024-03-23T00:55:00;21.10;;;11.00;;
57341;SDS011;43175;51.002;18.316;2024-03-23T00:57:25;20.60;;;10.90;;
57341;SDS011;43175;51.002;18.316;2024-03-23T00:59:51;20.50;;;10.90;;
57341;SDS011;43175;51.002;18.316;2024-03-23T01:02:16;21.80;;;11.30;;
57341;SDS011;43175;51.002;18.316;2024-03-23T01:04:42;21.10;;;11.30;;
57341;SDS011;43175;51.002;18.316;2024-03-23T01:07:07;21.40;;;11.40;;
57341;SDS011;43175;51.002;18.316;2024-03-23T01:09:33;22.20;;;11.50;;
57341;SDS011;43175;51.002;18.316;2024-03-23T01:11:58;23.40;;;11.80;;
57341;SDS011;43175;51.002;18.316;2024-03-23T01:14:24;22.30;;;11.40;;
57341;SDS011;43175;51.002;18.316;2024-03-23T01:16:49;21.50;;;11.50;;
57341;SDS011;43175;51.002;18.316;2024-03-23T01:19:14;21.10;;;11.40;;
57341;SDS011;43175;51.002;18.316;2024-03-23T01:21:40;22.60;;;12.30;;
57341;SDS011;43175;51.002;18.316;2024-03-23T01:24:06;23.10;;;12.80;;
57341;SDS011;43175;51.002;18.316;2024-03-23T01:26:32;23.60;;;12.40;;
57341;SDS011;43175;51.002;18.316;2024-03-23T01:28:57;27.70;;;14.30;;
57341;SDS011;43175;51.002;18.316;2024-03-23T01:31:22;26.20;;;14.60;;
57341;SDS011;43175;51.002;18.316;2024-03-23T01:33:48;29.40;;;15.80;;
57341;SDS011;43175;51.002;18.316;2024-03-23T01:36:14;28.40;;;16.00;;
57341;SDS011;43175;51.002;18.316;2024-03-23T01:38:39;28.00;;;15.40;;
57341;SDS011;43175;51.002;18.316;2024-03-23T01:41:05;28.80;;;16.40;;
57341;SDS011;43175;51.002;18.316;2024-03-23T01:43:30;29.60;;;15.20;;
57341;SDS011;43175;51.002;18.316;2024-03-23T01:45:56;26.30;;;15.20;;
57341;SDS011;43175;51.002;18.316;2024-03-23T01:48:22;27.20;;;15.10;;
57341;SDS011;43175;51.002;18.316;2024-03-23T01:50:48;24.90;;;14.10;;
57341;SDS011;43175;51.002;18.316;2024-03-23T01:53:14;29.20;;;14.60;;
57341;SDS011;43175;51.002;18.316;2024-03-23T01:55:42;26.10;;;13.90;;
57341;SDS011;43175;51.002;18.316;2024-03-23T01:58:08;29.00;;;14.70;;
57341;SDS011;43175;51.002;18.316;2024-03-23T02:00:33;26.70;;;14.20;;
57341;SDS011;43175;51.002;18.316;2024-03-23T02:02:59;26.10;;;13.70;;
57341;SDS011;43175;51.002;18.316;2024-03-23T02:05:24;27.70;;;14.50;;
57341;SDS011;43175;51.002;18.316;2024-03-23T02:07:50;27.30;;;14.30;;
57341;SDS011;43175;51.002;18.316;2024-03-23T02:10:15;26.00;;;13.60;;
57341;SDS011;43175;51.002;18.316;2024-03-23T02:12:41;23.20;;;13.10;;
57341;SDS011;43175;51.002;18.316;2024-03-23T02:15:06;25.30;;;13.30;;
57341;SDS011;43175;51.002;18.316;2024-03-23T02:17:34;25.60;;;13.30;;
57341;SDS011;43175;51.002;18.316;2024-03-23T02:20:00;25.80;;;13.10;;
57341;SDS011;43175;51.002;18.316;2024-03-23T02:22:35;26.00;;;13.60;;
57341;SDS011;43175;51.002;18.316;2024-03-23T02:25:00;24.50;;;13.20;;
57341;SDS011;43175;51.002;18.316;2024-03-23T02:27:26;24.80;;;13.10;;
57341;SDS011;43175;51.002;18.316;2024-03-23T02:29:51;25.10;;;13.50;;
57341;SDS011;43175;51.002;18.316;2024-03-23T02:32:17;24.90;;;13.60;;
57341;SDS011;43175;51.002;18.316;2024-03-23T02:34:43;24.60;;;13.60;;
57341;SDS011;43175;51.002;18.316;2024-03-23T02:37:11;25.20;;;13.20;;
57341;SDS011;43175;51.002;18.316;2024-03-23T02:39:37;24.60;;;13.20;;
57341;SDS011;43175;51.002;18.316;2024-03-23T02:42:03;25.00;;;13.60;;
57341;SDS011;43175;51.002;18.316;2024-03-23T02:44:28;27.60;;;14.20;;
57341;SDS011;43175;51.002;18.316;2024-03-23T02:46:54;25.90;;;13.60;;
57341;SDS011;43175;51.002;18.316;2024-03-23T02:49:19;23.40;;;12.60;;
57341;SDS011;43175;51.002;18.316;2024-03-23T02:51:46;24.40;;;13.20;;
57341;SDS011;43175;51.002;18.316;2024-03-23T02:54:14;24.40;;;12.40;;
57341;SDS011;43175;51.002;18.316;2024-03-23T02:56:39;24.60;;;13.10;;
57341;SDS011;43175;51.002;18.316;2024-03-23T02:59:05;24.70;;;13.30;;
57341;SDS011;43175;51.002;18.316;2024-03-23T03:01:30;23.80;;;12.10;;
57341;SDS011;43175;51.002;18.316;2024-03-23T03:03:56;24.20;;;13.10;;
57341;SDS011;43175;51.002;18.316;2024-03-23T03:06:27;24.10;;;12.80;;
57341;SDS011;43175;51.002;18.316;2024-03-23T03:08:53;23.50;;;13.10;;
57341;SDS011;43175;51.002;18.316;2024-03-23T03:11:19;25.60;;;12.90;;
57341;SDS011;43175;51.002;18.316;2024-03-23T03:13:44;24.10;;;12.90;;
57341;SDS011;43175;51.002;18.316;2024-03-23T03:16:10;25.50;;;13.60;;
57341;SDS011;43175;51.002;18.316;2024-03-23T03:18:36;26.10;;;13.30;;
57341;SDS011;43175;51.002;18.316;2024-03-23T03:21:01;26.10;;;14.20;;
57341;SDS011;43175;51.002;18.316;2024-03-23T03:23:27;24.90;;;13.20;;
57341;SDS011;43175;51.002;18.316;2024-03-23T03:25:53;24.90;;;13.60;;
57341;SDS011;43175;51.002;18.316;2024-03-23T03:28:18;27.00;;;13.40;;
57341;SDS011;43175;51.002;18.316;2024-03-23T03:30:44;26.20;;;13.60;;
57341;SDS011;43175;51.002;18.316;2024-03-23T03:33:10;26.40;;;13.70;;
57341;SDS011;43175;51.002;18.316;2024-03-23T03:35:35;26.70;;;14.40;;
57341;SDS011;43175;51.002;18.316;2024-03-23T03:38:03;24.60;;;13.50;;
57341;SDS011;43175;51.002;18.316;2024-03-23T03:40:28;27.30;;;14.10;;
57341;SDS011;43175;51.002;18.316;2024-03-23T03:42:54;25.80;;;13.80;;
57341;SDS011;43175;51.002;18.316;2024-03-23T03:45:19;25.40;;;13.20;;
57341;SDS011;43175;51.002;18.316;2024-03-23T03:47:44;24.10;;;13.20;;
57341;SDS011;43175;51.002;18.316;2024-03-23T03:50:10;25.30;;;13.70;;
57341;SDS011;43175;51.002;18.316;2024-03-23T03:52:35;27.40;;;14.00;;
57341;SDS011;43175;51.002;18.316;2024-03-23T03:55:01;24.40;;;13.20;;
57341;SDS011;43175;51.002;18.316;2024-03-23T03:57:28;27.90;;;14.00;;
57341;SDS011;43175;51.002;18.316;2024-03-23T03:59:53;27.00;;;13.30;;
57341;SDS011;43175;51.002;18.316;2024-03-23T04:02:19;25.40;;;13.40;;
57341;SDS011;43175;51.002;18.316;2024-03-23T04:04:44;26.30;;;13.10;;
57341;SDS011;43175;51.002;18.316;2024-03-23T04:07:09;23.80;;;13.30;;
57341;SDS011;43175;51.002;18.316;2024-03-23T04:09:35;24.90;;;13.40;;
57341;SDS011;43175;51.002;18.316;2024-03-23T04:12:01;26.30;;;13.50;;
57341;SDS011;43175;51.002;18.316;2024-03-23T04:14:26;24.60;;;13.20;;
57341;SDS011;43175;51.002;18.316;2024-03-23T04:16:52;24.00;;;13.40;;
57341;SDS011;43175;51.002;18.316;2024-03-23T04:19:17;25.10;;;13.80;;
57341;SDS011;43175;51.002;18.316;2024-03-23T04:21:43;25.40;;;12.90;;
57341;SDS011;43175;51.002;18.316;2024-03-23T04:24:08;27.60;;;13.30;;
57341;SDS011;43175;51.002;18.316;2024-03-23T04:26:43;25.20;;;13.30;;
57341;SDS011;43175;51.002;18.316;2024-03-23T04:29:08;26.10;;;13.10;;
57341;SDS011;43175;51.002;18.316;2024-03-23T04:31:34;25.10;;;13.30;;
57341;SDS011;43175;51.002;18.316;2024-03-23T04:34:00;24.10;;;12.40;;
57341;SDS011;43175;51.002;18.316;2024-03-23T04:36:26;23.60;;;12.40;;
57341;SDS011;43175;51.002;18.316;2024-03-23T04:38:51;23.80;;;12.30;;
57341;SDS011;43175;51.002;18.316;2024-03-23T04:41:17;22.40;;;11.50;;
57341;SDS011;43175;51.002;18.316;2024-03-23T04:43:43;21.30;;;12.10;;
57341;SDS011;43175;51.002;18.316;2024-03-23T04:46:08;21.40;;;11.00;;
57341;SDS011;43175;51.002;18.316;2024-03-23T04:48:34;23.40;;;12.00;;
57341;SDS011;43175;51.002;18.316;2024-03-23T04:51:00;21.50;;;11.10;;
57341;SDS011;43175;51.002;18.316;2024-03-23T04:53:25;23.80;;;11.90;;
57341;SDS011;43175;51.002;18.316;2024-03-23T04:55:54;22.00;;;11.80;;
57341;SDS011;43175;51.002;18.316;2024-03-23T04:58:20;22.30;;;11.30;;
57341;SDS011;43175;51.002;18.316;2024-03-23T05:00:45;21.20;;;11.90;;
57341;SDS011;43175;51.002;18.316;2024-03-23T05:03:10;23.00;;;12.30;;
57341;SDS011;43175;51.002;18.316;2024-03-23T05:05:36;20.70;;;11.30;;
57341;SDS011;43175;51.002;18.316;2024-03-23T05:08:01;20.90;;;11.10;;
57341;SDS011;43175;51.002;18.316;2024-03-23T05:10:27;21.60;;;11.40;;
57341;SDS011;43175;51.002;18.316;2024-03-23T05:12:53;21.10;;;10.80;;
57341;SDS011;43175;51.002;18.316;2024-03-23T05:15:18;22.50;;;11.60;;
57341;SDS011;43175;51.002;18.316;2024-03-23T05:17:44;21.70;;;10.90;;
57341;SDS011;43175;51.002;18.316;2024-03-23T05:20:09;20.20;;;11.00;;
57341;SDS011;43175;51.002;18.316;2024-03-23T05:22:35;23.90;;;11.80;;
57341;SDS011;43175;51.002;18.316;2024-03-23T05:25:01;23.00;;;11.70;;
57341;SDS011;43175;51.002;18.316;2024-03-23T05:27:29;21.90;;;11.70;;
57341;SDS011;43175;51.002;18.316;2024-03-23T05:29:55;19.70;;;10.30;;
57341;SDS011;43175;51.002;18.316;2024-03-23T05:32:20;22.40;;;10.90;;
57341;SDS011;43175;51.002;18.316;2024-03-23T05:34:46;20.10;;;10.70;;
57341;SDS011;43175;51.002;18.316;2024-03-23T05:37:11;20.40;;;10.20;;
57341;SDS011;43175;51.002;18.316;2024-03-23T05:39:37;19.90;;;11.10;;
57341;SDS011;43175;51.002;18.316;2024-03-23T05:42:02;21.70;;;11.20;;
57341;SDS011;43175;51.002;18.316;2024-03-23T05:44:28;20.60;;;10.70;;
57341;SDS011;43175;51.002;18.316;2024-03-23T05:46:53;20.80;;;10.90;;
57341;SDS011;43175;51.002;18.316;2024-03-23T05:49:19;21.80;;;11.10;;
57341;SDS011;43175;51.002;18.316;2024-03-23T05:51:46;22.00;;;10.60;;
57341;SDS011;43175;51.002;18.316;2024-03-23T05:54:12;22.10;;;11.30;;
57341;SDS011;43175;51.002;18.316;2024-03-23T05:56:38;20.80;;;11.00;;
57341;SDS011;43175;51.002;18.316;2024-03-23T05:59:03;20.60;;;11.10;;
57341;SDS011;43175;51.002;18.316;2024-03-23T06:01:28;20.90;;;10.80;;
57341;SDS011;43175;51.002;18.316;2024-03-23T06:03:54;22.40;;;11.70;;
57341;SDS011;43175;51.002;18.316;2024-03-23T06:06:19;21.80;;;12.10;;
57341;SDS011;43175;51.002;18.316;2024-03-23T06:08:45;24.30;;;12.90;;
57341;SDS011;43175;51.002;18.316;2024-03-23T06:11:10;22.60;;;11.90;;
57341;SDS011;43175;51.002;18.316;2024-03-23T06:13:36;22.30;;;12.70;;
57341;SDS011;43175;51.002;18.316;2024-03-23T06:16:01;22.70;;;12.90;;
57341;SDS011;43175;51.002;18.316;2024-03-23T06:18:27;22.70;;;12.60;;
57341;SDS011;43175;51.002;18.316;2024-03-23T06:20:53;24.90;;;12.90;;
57341;SDS011;43175;51.002;18.316;2024-03-23T06:23:19;23.50;;;13.60;;
57341;SDS011;43175;51.002;18.316;2024-03-23T06:25:45;23.20;;;13.00;;
57341;SDS011;43175;51.002;18.316;2024-03-23T06:28:11;23.30;;;12.70;;
57341;SDS011;43175;51.002;18.316;2024-03-23T06:30:36;23.70;;;12.90;;
57341;SDS011;43175;51.002;18.316;2024-03-23T06:33:02;23.80;;;12.60;;
57341;SDS011;43175;51.002;18.316;2024-03-23T06:35:28;23.70;;;12.50;;
57341;SDS011;43175;51.002;18.316;2024-03-23T06:37:53;22.40;;;13.00;;
57341;SDS011;43175;51.002;18.316;2024-03-23T06:40:19;21.60;;;11.90;;
57341;SDS011;43175;51.002;18.316;2024-03-23T06:42:44;23.70;;;12.50;;
57341;SDS011;43175;51.002;18.316;2024-03-23T06:45:09;22.30;;;12.70;;
57341;SDS011;43175;51.002;18.316;2024-03-23T06:47:35;22.60;;;12.50;;
57341;SDS011;43175;51.002;18.316;2024-03-23T06:50:01;22.90;;;12.70;;
57341;SDS011;43175;51.002;18.316;2024-03-23T06:52:27;23.20;;;12.50;;
57341;SDS011;43175;51.002;18.316;2024-03-23T06:54:53;25.30;;;12.70;;
57341;SDS011;43175;51.002;18.316;2024-03-23T06:57:18;25.30;;;13.30;;
57341;SDS011;43175;51.002;18.316;2024-03-23T06:59:44;22.50;;;12.70;;
57341;SDS011;43175;51.002;18.316;2024-03-23T07:02:09;23.50;;;13.10;;
57341;SDS011;43175;51.002;18.316;2024-03-23T07:04:35;25.90;;;13.00;;
57341;SDS011;43175;51.002;18.316;2024-03-23T07:07:00;22.70;;;12.60;;
57341;SDS011;43175;51.002;18.316;2024-03-23T07:09:27;23.20;;;12.50;;
57341;SDS011;43175;51.002;18.316;2024-03-23T07:11:53;21.80;;;12.10;;
57341;SDS011;43175;51.002;18.316;2024-03-23T07:14:20;21.00;;;12.30;;
57341;SDS011;43175;51.002;18.316;2024-03-23T07:16:45;22.30;;;13.00;;
57341;SDS011;43175;51.002;18.316;2024-03-23T07:19:11;22.90;;;12.40;;
57341;SDS011;43175;51.002;18.316;2024-03-23T07:21:36;21.30;;;12.10;;
57341;SDS011;43175;51.002;18.316;2024-03-23T07:24:01;22.90;;;12.30;;
57341;SDS011;43175;51.002;18.316;2024-03-23T07:26:27;21.60;;;11.80;;
57341;SDS011;43175;51.002;18.316;2024-03-23T07:28:55;21.70;;;12.10;;
57341;SDS011;43175;51.002;18.316;2024-03-23T07:31:20;21.30;;;12.20;;
57341;SDS011;43175;51.002;18.316;2024-03-23T07:33:48;21.80;;;12.60;;
57341;SDS011;43175;51.002;18.316;2024-03-23T07:36:13;24.10;;;14.30;;
57341;SDS011;43175;51.002;18.316;2024-03-23T07:38:42;32.90;;;21.80;;
57341;SDS011;43175;51.002;18.316;2024-03-23T07:41:10;33.10;;;21.20;;
57341;SDS011;43175;51.002;18.316;2024-03-23T07:43:37;28.50;;;18.60;;
57341;SDS011;43175;51.002;18.316;2024-03-23T07:46:03;20.00;;;12.30;;
57341;SDS011;43175;51.002;18.316;2024-03-23T07:48:29;19.70;;;11.50;;
57341;SDS011;43175;51.002;18.316;2024-03-23T07:51:06;20.20;;;11.50;;
57341;SDS011;43175;51.002;18.316;2024-03-23T07:53:31;21.40;;;11.50;;
57341;SDS011;43175;51.002;18.316;2024-03-23T07:56:01;21.90;;;11.80;;
57341;SDS011;43175;51.002;18.316;2024-03-23T07:58:27;19.50;;;11.70;;
57341;SDS011;43175;51.002;18.316;2024-03-23T08:00:52;20.60;;;11.70;;
57341;SDS011;43175;51.002;18.316;2024-03-23T08:03:18;21.90;;;11.40;;
57341;SDS011;43175;51.002;18.316;2024-03-23T08:05:43;19.70;;;11.50;;
57341;SDS011;43175;51.002;18.316;2024-03-23T08:08:09;22.00;;;11.80;;
57341;SDS011;43175;51.002;18.316;2024-03-23T08:10:34;20.80;;;11.90;;
57341;SDS011;43175;51.002;18.316;2024-03-23T08:13:00;22.20;;;11.90;;
57341;SDS011;43175;51.002;18.316;2024-03-23T08:15:25;21.20;;;11.90;;
57341;SDS011;43175;51.002;18.316;2024-03-23T08:17:51;21.30;;;11.80;;
57341;SDS011;43175;51.002;18.316;2024-03-23T08:20:16;19.90;;;11.20;;
57341;SDS011;43175;51.002;18.316;2024-03-23T08:22:41;19.70;;;11.20;;
57341;SDS011;43175;51.002;18.316;2024-03-23T08:25:07;20.60;;;11.80;;
57341;SDS011;43175;51.002;18.316;2024-03-23T08:27:32;19.20;;;10.70;;
57341;SDS011;43175;51.002;18.316;2024-03-23T08:29:58;19.40;;;10.50;;
57341;SDS011;43175;51.002;18.316;2024-03-23T08:32:24;20.70;;;11.50;;
57341;SDS011;43175;51.002;18.316;2024-03-23T08:34:49;18.20;;;11.10;;
57341;SDS011;43175;51.002;18.316;2024-03-23T08:37:15;20.50;;;10.70;;
57341;SDS011;43175;51.002;18.316;2024-03-23T08:39:42;18.00;;;10.80;;
57341;SDS011;43175;51.002;18.316;2024-03-23T08:42:08;19.80;;;10.40;;
57341;SDS011;43175;51.002;18.316;2024-03-23T08:44:34;19.50;;;10.50;;
57341;SDS011;43175;51.002;18.316;2024-03-23T08:46:59;18.10;;;10.40;;
57341;SDS011;43175;51.002;18.316;2024-03-23T08:49:25;19.40;;;10.50;;
57341;SDS011;43175;51.002;18.316;2024-03-23T08:51:50;19.20;;;10.30;;
57341;SDS011;43175;51.002;18.316;2024-03-23T08:54:16;19.50;;;10.00;;
57341;SDS011;43175;51.002;18.316;2024-03-23T08:56:42;20.30;;;9.90;;
57341;SDS011;43175;51.002;18.316;2024-03-23T08:59:07;17.70;;;9.40;;
57341;SDS011;43175;51.002;18.316;2024-03-23T09:01:33;17.20;;;9.30;;
57341;SDS011;43175;51.002;18.316;2024-03-23T09:03:58;18.10;;;9.20;;
57341;SDS011;43175;51.002;18.316;2024-03-23T09:06:24;18.90;;;9.40;;
57341;SDS011;43175;51.002;18.316;2024-03-23T09:08:50;16.90;;;9.40;;
57341;SDS011;43175;51.002;18.316;2024-03-23T09:11:15;15.20;;;8.80;;
57341;SDS011;43175;51.002;18.316;2024-03-23T09:13:40;16.50;;;9.60;;
57341;SDS011;43175;51.002;18.316;2024-03-23T09:16:09;17.60;;;9.60;;
57341;SDS011;43175;51.002;18.316;2024-03-23T09:18:35;16.70;;;9.60;;
57341;SDS011;43175;51.002;18.316;2024-03-23T09:21:02;17.40;;;9.40;;
57341;SDS011;43175;51.002;18.316;2024-03-23T09:23:27;18.80;;;9.20;;
57341;SDS011;43175;51.002;18.316;2024-03-23T09:25:53;17.10;;;9.40;;
57341;SDS011;43175;51.002;18.316;2024-03-23T09:28:19;17.10;;;9.40;;
57341;SDS011;43175;51.002;18.316;2024-03-23T09:30:44;16.20;;;9.00;;
57341;SDS011;43175;51.002;18.316;2024-03-23T09:33:10;17.70;;;9.40;;
57341;SDS011;43175;51.002;18.316;2024-03-23T09:35:39;19.60;;;9.30;;
57341;SDS011;43175;51.002;18.316;2024-03-23T09:38:04;17.50;;;9.40;;
57341;SDS011;43175;51.002;18.316;2024-03-23T09:40:31;17.30;;;9.20;;
57341;SDS011;43175;51.002;18.316;2024-03-23T09:42:56;17.10;;;9.70;;
57341;SDS011;43175;51.002;18.316;2024-03-23T09:45:26;15.90;;;9.00;;
57341;SDS011;43175;51.002;18.316;2024-03-23T09:47:52;18.60;;;9.80;;
57341;SDS011;43175;51.002;18.316;2024-03-23T09:50:18;21.30;;;10.00;;
57341;SDS011;43175;51.002;18.316;2024-03-23T09:52:47;20.70;;;9.00;;
57341;SDS011;43175;51.002;18.316;2024-03-23T09:55:13;465.80;;;45.40;;
57341;SDS011;43175;51.002;18.316;2024-03-23T09:57:39;419.00;;;39.60;;
57341;SDS011;43175;51.002;18.316;2024-03-23T10:00:05;554.10;;;50.30;;
57341;SDS011;43175;51.002;18.316;2024-03-23T10:02:31;175.60;;;22.10;;
57341;SDS011;43175;51.002;18.316;2024-03-23T10:04:58;103.60;;;16.00;;
57341;SDS011;43175;51.002;18.316;2024-03-23T10:07:23;291.60;;;29.10;;
57341;SDS011;43175;51.002;18.316;2024-03-23T10:09:48;23.70;;;10.10;;
57341;SDS011;43175;51.002;18.316;2024-03-23T10:12:17;66.10;;;12.80;;
57341;SDS011;43175;51.002;18.316;2024-03-23T10:14:42;156.30;;;18.00;;
57341;SDS011;43175;51.002;18.316;2024-03-23T10:17:26;17.30;;;8.90;;
57341;SDS011;43175;51.002;18.316;2024-03-23T10:19:52;15.50;;;8.30;;
57341;SDS011;43175;51.002;18.316;2024-03-23T10:22:21;15.00;;;8.20;;
57341;SDS011;43175;51.002;18.316;2024-03-23T10:24:47;14.00;;;7.80;;
57341;SDS011;43175;51.002;18.316;2024-03-23T10:27:15;14.80;;;8.00;;
57341;SDS011;43175;51.002;18.316;2024-03-23T10:29:43;14.20;;;7.60;;
57341;SDS011;43175;51.002;18.316;2024-03-23T10:32:12;14.00;;;7.30;;
57341;SDS011;43175;51.002;18.316;2024-03-23T10:34:38;15.40;;;7.40;;
57341;SDS011;43175;51.002;18.316;2024-03-23T10:37:04;16.50;;;7.30;;
57341;SDS011;43175;51.002;18.316;2024-03-23T10:39:31;13.40;;;7.30;;
57341;SDS011;43175;51.002;18.316;2024-03-23T10:41:58;14.80;;;7.50;;
57341;SDS011;43175;51.002;18.316;2024-03-23T10:44:24;14.00;;;7.30;;
57341;SDS011;43175;51.002;18.316;2024-03-23T10:46:52;15.00;;;7.40;;
57341;SDS011;43175;51.002;18.316;2024-03-23T10:49:24;16.30;;;7.70;;
57341;SDS011;43175;51.002;18.316;2024-03-23T10:51:51;14.60;;;7.40;;
57341;SDS011;43175;51.002;18.316;2024-03-23T10:54:16;15.10;;;7.80;;
57341;SDS011;43175;51.002;18.316;2024-03-23T10:56:43;16.00;;;7.30;;
57341;SDS011;43175;51.002;18.316;2024-03-23T10:59:09;14.20;;;7.60;;
57341;SDS011;43175;51.002;18.316;2024-03-23T11:01:35;14.30;;;7.00;;
57341;SDS011;43175;51.002;18.316;2024-03-23T11:04:37;15.90;;;6.90;;
57341;SDS011;43175;51.002;18.316;2024-03-23T11:09:51;16.20;;;7.30;;
57341;SDS011;43175;51.002;18.316;2024-03-23T11:15:02;15.20;;;7.60;;
57341;SDS011;43175;51.002;18.316;2024-03-23T11:17:29;15.10;;;7.20;;
57341;SDS011;43175;51.002;18.316;2024-03-23T11:22:39;13.60;;;7.00;;
57341;SDS011;43175;51.002;18.316;2024-03-23T11:27:31;14.10;;;7.40;;
57341;SDS011;43175;51.002;18.316;2024-03-23T11:30:09;15.70;;;7.20;;
57341;SDS011;43175;51.002;18.316;2024-03-23T11:32:34;15.10;;;6.50;;
57341;SDS011;43175;51.002;18.316;2024-03-23T11:35:00;13.70;;;6.90;;
57341;SDS011;43175;51.002;18.316;2024-03-23T11:37:25;13.30;;;6.20;;
57341;SDS011;43175;51.002;18.316;2024-03-23T11:39:52;12.30;;;6.50;;
57341;SDS011;43175;51.002;18.316;2024-03-23T11:42:17;11.60;;;6.40;;
57341;SDS011;43175;51.002;18.316;2024-03-23T11:44:43;12.70;;;6.50;;
57341;SDS011;43175;51.002;18.316;2024-03-23T11:47:08;15.40;;;7.10;;
57341;SDS011;43175;51.002;18.316;2024-03-23T11:49:35;14.30;;;6.60;;
57341;SDS011;43175;51.002;18.316;2024-03-23T11:52:06;12.20;;;6.50;;
57341;SDS011;43175;51.002;18.316;2024-03-23T11:54:32;12.90;;;7.00;;
57341;SDS011;43175;51.002;18.316;2024-03-23T11:57:03;13.70;;;6.90;;
57341;SDS011;43175;51.002;18.316;2024-03-23T11:59:36;15.70;;;7.90;;
57341;SDS011;43175;51.002;18.316;2024-03-23T12:02:20;24.70;;;15.50;;
57341;SDS011;43175;51.002;18.316;2024-03-23T12:04:46;16.30;;;8.30;;
57341;SDS011;43175;51.002;18.316;2024-03-23T12:07:15;18.50;;;10.40;;
57341;SDS011;43175;51.002;18.316;2024-03-23T12:09:41;18.30;;;10.10;;
57341;SDS011;43175;51.002;18.316;2024-03-23T12:12:10;13.10;;;6.60;;
57341;SDS011;43175;51.002;18.316;2024-03-23T12:14:36;12.50;;;6.40;;
57341;SDS011;43175;51.002;18.316;2024-03-23T12:17:14;14.60;;;7.70;;
57341;SDS011;43175;51.002;18.316;2024-03-23T12:19:40;11.00;;;5.80;;
57341;SDS011;43175;51.002;18.316;2024-03-23T12:22:10;10.60;;;5.30;;
57341;SDS011;43175;51.002;18.316;2024-03-23T12:24:35;10.90;;;5.40;;
57341;SDS011;43175;51.002;18.316;2024-03-23T12:29:33;11.10;;;5.40;;
57341;SDS011;43175;51.002;18.316;2024-03-23T12:31:59;11.10;;;5.10;;
57341;SDS011;43175;51.002;18.316;2024-03-23T12:34:25;10.90;;;5.10;;
57341;SDS011;43175;51.002;18.316;2024-03-23T12:36:50;12.70;;;5.90;;
57341;SDS011;43175;51.002;18.316;2024-03-23T12:39:16;10.50;;;5.50;;
57341;SDS011;43175;51.002;18.316;2024-03-23T12:41:41;13.40;;;5.60;;
57341;SDS011;43175;51.002;18.316;2024-03-23T12:44:06;11.30;;;5.60;;
57341;SDS011;43175;51.002;18.316;2024-03-23T12:46:33;11.70;;;5.50;;
57341;SDS011;43175;51.002;18.316;2024-03-23T12:48:59;12.30;;;5.80;;
57341;SDS011;43175;51.002;18.316;2024-03-23T12:51:24;14.60;;;6.50;;
57341;SDS011;43175;51.002;18.316;2024-03-23T12:53:59;15.10;;;7.50;;
57341;SDS011;43175;51.002;18.316;2024-03-23T12:56:25;14.90;;;6.30;;
57341;SDS011;43175;51.002;18.316;2024-03-23T12:58:50;13.90;;;6.40;;
57341;SDS011;43175;51.002;18.316;2024-03-23T13:01:19;13.90;;;5.60;;
57341;SDS011;43175;51.002;18.316;2024-03-23T13:03:49;13.50;;;5.20;;
57341;SDS011;43175;51.002;18.316;2024-03-23T13:06:15;15.70;;;5.20;;
57341;SDS011;43175;51.002;18.316;2024-03-23T13:08:41;14.70;;;5.00;;
57341;SDS011;43175;51.002;18.316;2024-03-23T13:11:07;12.30;;;5.60;;
57341;SDS011;43175;51.002;18.316;2024-03-23T13:13:36;14.00;;;5.80;;
57341;SDS011;43175;51.002;18.316;2024-03-23T13:16:01;11.20;;;5.10;;
57341;SDS011;43175;51.002;18.316;2024-03-23T13:18:28;12.50;;;6.20;;
57341;SDS011;43175;51.002;18.316;2024-03-23T13:20:54;13.80;;;7.30;;
57341;SDS011;43175;51.002;18.316;2024-03-23T13:23:19;14.40;;;7.90;;
57341;SDS011;43175;51.002;18.316;2024-03-23T13:25:55;13.80;;;7.90;;
57341;SDS011;43175;51.002;18.316;2024-03-23T13:28:21;14.60;;;8.10;;
57341;SDS011;43175;51.002;18.316;2024-03-23T13:30:53;14.40;;;8.30;;
57341;SDS011;43175;51.002;18.316;2024-03-23T13:33:18;14.90;;;8.10;;
57341;SDS011;43175;51.002;18.316;2024-03-23T13:38:15;15.20;;;9.00;;
57341;SDS011;43175;51.002;18.316;2024-03-23T13:40:49;14.80;;;8.80;;
57341;SDS011;43175;51.002;18.316;2024-03-23T13:43:14;15.40;;;8.50;;
57341;SDS011;43175;51.002;18.316;2024-03-23T13:45:40;14.90;;;8.60;;
57341;SDS011;43175;51.002;18.316;2024-03-23T13:48:05;14.80;;;8.60;;
57341;SDS011;43175;51.002;18.316;2024-03-23T13:50:31;13.60;;;7.80;;
57341;SDS011;43175;51.002;18.316;2024-03-23T13:52:56;14.10;;;7.60;;
57341;SDS011;43175;51.002;18.316;2024-03-23T13:55:22;14.40;;;7.00;;
57341;SDS011;43175;51.002;18.316;2024-03-23T13:57:47;15.30;;;7.90;;
57341;SDS011;43175;51.002;18.316;2024-03-23T14:00:13;16.20;;;8.30;;
57341;SDS011;43175;51.002;18.316;2024-03-23T14:02:38;14.30;;;7.50;;
57341;SDS011;43175;51.002;18.316;2024-03-23T14:05:04;17.00;;;10.40;;
57341;SDS011;43175;51.002;18.316;2024-03-23T14:07:30;28.00;;;18.60;;
57341;SDS011;43175;51.002;18.316;2024-03-23T14:09:55;14.90;;;8.30;;
57341;SDS011;43175;51.002;18.316;2024-03-23T14:12:21;14.00;;;8.40;;
57341;SDS011;43175;51.002;18.316;2024-03-23T14:14:46;13.40;;;7.60;;
57341;SDS011;43175;51.002;18.316;2024-03-23T14:17:12;15.60;;;9.10;;
57341;SDS011;43175;51.002;18.316;2024-03-23T14:19:39;13.10;;;6.60;;
57341;SDS011;43175;51.002;18.316;2024-03-23T14:22:05;12.90;;;6.50;;
57341;SDS011;43175;51.002;18.316;2024-03-23T14:24:32;15.10;;;8.40;;
57341;SDS011;43175;51.002;18.316;2024-03-23T14:26:58;14.80;;;7.50;;
57341;SDS011;43175;51.002;18.316;2024-03-23T14:29:24;13.80;;;6.90;;
57341;SDS011;43175;51.002;18.316;2024-03-23T14:31:50;13.10;;;6.50;;
57341;SDS011;43175;51.002;18.316;2024-03-23T14:34:15;15.60;;;7.20;;
57341;SDS011;43175;51.002;18.316;2024-03-23T14:36:41;13.70;;;5.80;;
57341;SDS011;43175;51.002;18.316;2024-03-23T14:39:07;12.20;;;6.00;;
57341;SDS011;43175;51.002;18.316;2024-03-23T14:41:32;13.70;;;6.30;;
57341;SDS011;43175;51.002;18.316;2024-03-23T14:43:58;15.20;;;7.00;;
57341;SDS011;43175;51.002;18.316;2024-03-23T14:46:23;15.00;;;6.50;;
57341;SDS011;43175;51.002;18.316;2024-03-23T14:48:49;13.10;;;6.30;;
57341;SDS011;43175;51.002;18.316;2024-03-23T14:51:14;14.90;;;6.10;;
57341;SDS011;43175;51.002;18.316;2024-03-23T14:53:40;12.60;;;5.30;;
57341;SDS011;43175;51.002;18.316;2024-03-23T14:56:07;10.70;;;5.10;;
57341;SDS011;43175;51.002;18.316;2024-03-23T14:58:32;13.30;;;6.60;;
57341;SDS011;43175;51.002;18.316;2024-03-23T15:01:01;12.10;;;6.10;;
57341;SDS011;43175;51.002;18.316;2024-03-23T15:03:27;13.70;;;6.70;;
57341;SDS011;43175;51.002;18.316;2024-03-23T15:05:53;14.40;;;7.00;;
57341;SDS011;43175;51.002;18.316;2024-03-23T15:08:20;17.30;;;8.10;;
57341;SDS011;43175;51.002;18.316;2024-03-23T15:10:45;19.70;;;10.90;;
57341;SDS011;43175;51.002;18.316;2024-03-23T15:13:11;12.30;;;5.60;;
57341;SDS011;43175;51.002;18.316;2024-03-23T15:15:39;11.60;;;5.20;;
57341;SDS011;43175;51.002;18.316;2024-03-23T15:18:07;12.50;;;5.50;;